createdAt,value
2022-12-06T00:07:57.782Z,9.60
2022-12-06T00:18:01.698Z,9.60
2022-12-06T00:28:07.032Z,9.50
2022-12-06T00:38:10.870Z,9.50
2022-12-06T00:48:16.106Z,9.60
2022-12-06T00:58:20.215Z,9.70
2022-12-06T01:08:25.466Z,9.70
2022-12-06T01:18:29.434Z,9.70
2022-12-06T01:28:35.117Z,9.60
2022-12-06T01:38:38.947Z,9.60
2022-12-06T01:48:44.199Z,9.50
2022-12-06T01:58:49.710Z,9.50
2022-12-06T02:08:56.257Z,9.40
2022-12-06T02:19:10.415Z,9.40
2022-12-06T02:29:54.393Z,9.50
2022-12-06T02:40:04.435Z,9.50
2022-12-06T02:50:13.211Z,9.50
2022-12-06T03:00:37.418Z,9.50
2022-12-06T03:10:48.178Z,9.40
2022-12-06T03:20:55.984Z,9.40
2022-12-06T03:31:04.269Z,9.70
2022-12-06T03:41:10.745Z,9.90
2022-12-06T03:51:19.714Z,10.20
2022-12-06T04:01:25.168Z,10.40
2022-12-06T04:11:28.897Z,10.10
2022-12-06T04:21:51.109Z,10.00
2022-12-06T04:32:12.161Z,9.90
2022-12-06T04:42:35.009Z,9.90
2022-12-06T04:52:38.703Z,10.10
2022-12-06T05:02:43.786Z,10.00
2022-12-06T05:12:47.466Z,10.10
2022-12-06T05:22:52.715Z,10.10
2022-12-06T05:32:57.127Z,10.20
2022-12-06T05:43:02.427Z,10.20
2022-12-06T05:53:06.407Z,10.10
2022-12-06T06:03:11.557Z,10.10
2022-12-06T06:13:15.294Z,10.10
2022-12-06T06:23:21.236Z,10.10
2022-12-06T06:33:24.899Z,10.30
2022-12-06T06:43:30.676Z,10.30
2022-12-06T06:53:34.499Z,10.20
2022-12-06T07:03:39.562Z,10.30
2022-12-06T07:13:49.694Z,10.20
2022-12-06T07:23:57.752Z,10.10
2022-12-06T07:34:02.939Z,10.10
2022-12-06T07:44:26.383Z,10.00
2022-12-06T07:54:30.387Z,9.90
2022-12-06T08:04:35.483Z,9.90
2022-12-06T08:14:41.316Z,9.90
2022-12-06T08:24:46.401Z,10.10
2022-12-06T08:34:50.251Z,10.40
2022-12-06T08:44:55.372Z,10.90
2022-12-06T08:54:59.007Z,11.40
2022-12-06T09:05:04.542Z,11.80
2022-12-06T09:15:09.172Z,12.20
2022-12-06T09:25:14.391Z,12.90
2022-12-06T09:35:23.534Z,13.70
2022-12-06T09:45:52.336Z,14.10
2022-12-06T09:56:07.375Z,14.40
2022-12-06T10:06:15.890Z,14.70
2022-12-06T10:16:33.329Z,15.30
2022-12-06T10:26:49.452Z,15.80
2022-12-06T10:37:02.395Z,16.50
2022-12-06T10:47:15.797Z,16.60
2022-12-06T10:57:23.425Z,16.80
2022-12-06T11:07:33.598Z,16.50
2022-12-06T11:17:44.120Z,17.00
2022-12-06T11:27:53.866Z,16.50
2022-12-06T11:38:02.792Z,16.40
2022-12-06T11:48:15.303Z,16.70
2022-12-06T11:58:27.070Z,16.90
2022-12-06T12:08:32.968Z,16.50
2022-12-06T12:18:39.642Z,16.40
2022-12-06T12:28:46.498Z,17.30
2022-12-06T12:38:57.520Z,17.00
2022-12-06T12:49:24.761Z,16.90
2022-12-06T12:59:30.566Z,16.30
2022-12-06T13:09:52.155Z,15.90
2022-12-06T13:19:55.937Z,16.00
2022-12-06T13:30:06.029Z,16.20
2022-12-06T13:40:48.532Z,16.60
2022-12-06T13:50:55.575Z,16.30
2022-12-06T14:00:59.438Z,17.20
2022-12-06T14:11:20.241Z,16.50
2022-12-06T14:21:28.945Z,17.50
2022-12-06T14:31:40.433Z,17.90
2022-12-06T14:42:10.735Z,16.00
2022-12-06T14:52:24.903Z,15.30
2022-12-06T15:02:31.600Z,15.70
2022-12-06T15:12:56.578Z,16.60
2022-12-06T15:23:00.470Z,16.70
2022-12-06T15:33:06.106Z,17.50
2022-12-06T15:43:26.842Z,16.10
2022-12-06T15:53:32.036Z,15.60
2022-12-06T16:03:36.016Z,15.00
2022-12-06T16:13:41.173Z,14.00
2022-12-06T16:24:12.992Z,13.90
2022-12-06T16:34:19.604Z,13.10
2022-12-06T16:44:23.248Z,12.90
2022-12-06T16:54:28.339Z,12.80
2022-12-06T17:04:32.109Z,12.60
2022-12-06T17:14:38.977Z,12.50
2022-12-06T17:24:43.105Z,12.40
2022-12-06T17:34:48.426Z,12.20
2022-12-06T17:44:52.563Z,12.10
2022-12-06T17:54:57.700Z,11.90
2022-12-06T18:05:01.854Z,11.90
2022-12-06T18:15:28.400Z,12.10
2022-12-06T18:25:32.148Z,12.20
2022-12-06T18:35:38.772Z,12.20
2022-12-06T18:45:43.567Z,12.30
2022-12-06T18:55:49.127Z,12.20
2022-12-06T19:06:02.799Z,12.10
2022-12-06T19:16:09.135Z,11.80
2022-12-06T19:26:13.730Z,11.40
2022-12-06T19:36:20.831Z,11.20
2022-12-06T19:46:27.237Z,11.10
2022-12-06T19:56:32.965Z,11.00
2022-12-06T20:06:37.263Z,10.90
2022-12-06T20:16:43.487Z,10.70
2022-12-06T20:26:49.530Z,10.70
2022-12-06T20:36:54.585Z,10.50
2022-12-06T20:46:58.476Z,10.60
2022-12-06T20:57:08.632Z,10.50
2022-12-06T21:07:12.357Z,10.50
2022-12-06T21:17:17.701Z,10.40
2022-12-06T21:27:21.337Z,10.40
2022-12-06T21:37:26.883Z,10.10
2022-12-06T21:47:31.204Z,9.80
2022-12-06T21:57:36.982Z,9.80
2022-12-06T22:07:40.773Z,9.70
2022-12-06T22:17:46.038Z,9.80
2022-12-06T22:27:49.751Z,9.70
2022-12-06T22:37:54.860Z,9.70
2022-12-06T22:47:58.809Z,9.20
2022-12-06T22:58:03.837Z,9.20
2022-12-06T23:08:07.555Z,9.10
2022-12-06T23:18:12.864Z,9.20
2022-12-06T23:28:16.627Z,9.00
2022-12-06T23:38:21.684Z,9.00
2022-12-06T23:48:25.456Z,9.10
2022-12-06T23:58:30.915Z,9.30
